sensor_id;sensor_type;location;lat;lon;timestamp;pressure;altitude;pressure_sealevel;temperature;humidity
22753;BME280;11543;43.144;24.684;2022-10-31T00:00:49;99172.03;;;18.48;47.52
22753;BME280;11543;43.144;24.684;2022-10-31T00:03:15;99168.31;;;18.55;47.41
22753;BME280;11543;43.144;24.684;2022-10-31T00:05:43;99172.53;;;18.58;47.34
22753;BME280;11543;43.144;24.684;2022-10-31T00:08:10;99169.41;;;18.61;47.37
22753;BME280;11543;43.144;24.684;2022-10-31T00:10:39;99166.22;;;18.51;47.38
22753;BME280;11543;43.144;24.684;2022-10-31T00:13:06;99179.63;;;18.59;47.46
22753;BME280;11543;43.144;24.684;2022-10-31T00:15:38;99175.00;;;18.53;47.51
22753;BME280;11543;43.144;24.684;2022-10-31T00:18:05;99174.50;;;18.42;47.52
22753;BME280;11543;43.144;24.684;2022-10-31T00:20:31;99187.31;;;18.49;47.53
22753;BME280;11543;43.144;24.684;2022-10-31T00:22:58;99184.63;;;18.55;47.47
22753;BME280;11543;43.144;24.684;2022-10-31T00:25:23;99178.75;;;18.52;47.48
22753;BME280;11543;43.144;24.684;2022-10-31T00:27:49;99175.00;;;18.53;47.46
22753;BME280;11543;43.144;24.684;2022-10-31T00:30:14;99187.09;;;18.50;47.49
22753;BME280;11543;43.144;24.684;2022-10-31T00:32:40;99182.41;;;18.37;48.02
22753;BME280;11543;43.144;24.684;2022-10-31T00:35:05;99188.72;;;18.44;47.86
22753;BME280;11543;43.144;24.684;2022-10-31T00:37:31;99185.31;;;18.36;48.04
22753;BME280;11543;43.144;24.684;2022-10-31T00:39:56;99186.16;;;18.36;48.11
22753;BME280;11543;43.144;24.684;2022-10-31T00:42:22;99178.84;;;18.37;48.07
22753;BME280;11543;43.144;24.684;2022-10-31T00:44:47;99193.66;;;18.34;48.24
22753;BME280;11543;43.144;24.684;2022-10-31T00:47:13;99196.13;;;18.29;48.29
22753;BME280;11543;43.144;24.684;2022-10-31T00:49:38;99202.47;;;18.36;48.17
22753;BME280;11543;43.144;24.684;2022-10-31T00:52:03;99201.63;;;18.36;48.01
22753;BME280;11543;43.144;24.684;2022-10-31T00:54:29;99204.53;;;18.34;48.06
22753;BME280;11543;43.144;24.684;2022-10-31T00:56:56;99200.78;;;18.35;48.21
22753;BME280;11543;43.144;24.684;2022-10-31T00:59:22;99203.31;;;18.37;48.20
22753;BME280;11543;43.144;24.684;2022-10-31T01:01:47;99197.41;;;18.33;48.24
22753;BME280;11543;43.144;24.684;2022-10-31T01:04:12;99188.25;;;18.34;48.40
22753;BME280;11543;43.144;24.684;2022-10-31T01:06:38;99178.94;;;18.22;48.85
22753;BME280;11543;43.144;24.684;2022-10-31T01:09:03;99182.88;;;17.98;49.47
22753;BME280;11543;43.144;24.684;2022-10-31T01:11:29;99187.47;;;17.98;49.61
22753;BME280;11543;43.144;24.684;2022-10-31T01:13:54;99189.16;;;17.99;49.64
22753;BME280;11543;43.144;24.684;2022-10-31T01:16:22;99189.41;;;17.82;50.28
22753;BME280;11543;43.144;24.684;2022-10-31T01:18:48;99191.09;;;17.83;49.95
22753;BME280;11543;43.144;24.684;2022-10-31T01:21:16;99181.53;;;17.88;50.00
22753;BME280;11543;43.144;24.684;2022-10-31T01:23:42;99186.03;;;17.80;50.19
22753;BME280;11543;43.144;24.684;2022-10-31T01:26:13;99185.00;;;17.81;50.13
22753;BME280;11543;43.144;24.684;2022-10-31T01:28:44;99183.53;;;17.79;50.31
22753;BME280;11543;43.144;24.684;2022-10-31T01:31:10;99175.19;;;17.80;50.33
22753;BME280;11543;43.144;24.684;2022-10-31T01:33:36;99179.16;;;17.63;50.79
22753;BME280;11543;43.144;24.684;2022-10-31T01:36:16;99180.31;;;17.54;51.12
22753;BME280;11543;43.144;24.684;2022-10-31T01:38:42;99183.78;;;17.48;51.23
22753;BME280;11543;43.144;24.684;2022-10-31T01:41:10;99187.41;;;17.55;51.12
22753;BME280;11543;43.144;24.684;2022-10-31T01:43:52;99189.47;;;17.53;51.11
22753;BME280;11543;43.144;24.684;2022-10-31T01:46:22;99201.25;;;17.60;50.93
22753;BME280;11543;43.144;24.684;2022-10-31T01:48:49;99188.72;;;17.59;51.12
22753;BME280;11543;43.144;24.684;2022-10-31T01:51:17;99185.78;;;17.61;51.07
22753;BME280;11543;43.144;24.684;2022-10-31T01:53:45;99189.09;;;17.56;51.09
22753;BME280;11543;43.144;24.684;2022-10-31T01:56:12;99197.66;;;17.74;50.80
22753;BME280;11543;43.144;24.684;2022-10-31T01:58:39;99193.91;;;17.75;50.81
22753;BME280;11543;43.144;24.684;2022-10-31T02:01:05;99198.19;;;17.85;50.90
22753;BME280;11543;43.144;24.684;2022-10-31T02:03:31;99188.09;;;17.78;50.95
22753;BME280;11543;43.144;24.684;2022-10-31T02:05:57;99186.81;;;17.74;51.00
22753;BME280;11543;43.144;24.684;2022-10-31T02:08:30;99193.03;;;17.90;50.77
22753;BME280;11543;43.144;24.684;2022-10-31T02:10:58;99198.25;;;17.91;50.84
22753;BME280;11543;43.144;24.684;2022-10-31T02:13:25;99195.34;;;17.93;50.69
22753;BME280;11543;43.144;24.684;2022-10-31T02:15:53;99206.34;;;17.85;51.24
22753;BME280;11543;43.144;24.684;2022-10-31T02:18:20;99205.16;;;17.72;51.70
22753;BME280;11543;43.144;24.684;2022-10-31T02:21:16;99207.22;;;17.70;51.86
22753;BME280;11543;43.144;24.684;2022-10-31T02:33:15;99210.22;;;17.75;51.79
22753;BME280;11543;43.144;24.684;2022-10-31T02:35:38;99209.06;;;17.85;51.49
22753;BME280;11543;43.144;24.684;2022-10-31T02:40:37;99218.34;;;17.97;51.14
22753;BME280;11543;43.144;24.684;2022-10-31T02:45:35;99206.00;;;17.94;51.03
22753;BME280;11543;43.144;24.684;2022-10-31T02:48:18;99213.38;;;18.00;50.87
22753;BME280;11543;43.144;24.684;2022-10-31T02:50:56;99218.88;;;18.07;50.88
22753;BME280;11543;43.144;24.684;2022-10-31T02:53:23;99221.00;;;18.11;50.68
22753;BME280;11543;43.144;24.684;2022-10-31T02:56:13;99221.72;;;18.20;50.47
22753;BME280;11543;43.144;24.684;2022-10-31T03:04:49;99231.94;;;18.18;50.36
22753;BME280;11543;43.144;24.684;2022-10-31T03:07:16;99233.63;;;18.19;50.16
22753;BME280;11543;43.144;24.684;2022-10-31T03:12:15;99235.03;;;18.15;50.49
22753;BME280;11543;43.144;24.684;2022-10-31T03:15:19;99235.81;;;18.09;50.39
22753;BME280;11543;43.144;24.684;2022-10-31T03:18:01;99249.84;;;18.12;50.45
22753;BME280;11543;43.144;24.684;2022-10-31T03:20:37;99248.50;;;18.02;50.62
22753;BME280;11543;43.144;24.684;2022-10-31T03:23:07;99250.16;;;18.03;50.54
22753;BME280;11543;43.144;24.684;2022-10-31T03:25:35;99244.34;;;18.06;50.57
22753;BME280;11543;43.144;24.684;2022-10-31T03:28:03;99243.50;;;18.05;50.43
22753;BME280;11543;43.144;24.684;2022-10-31T03:30:33;99243.97;;;18.09;50.49
22753;BME280;11543;43.144;24.684;2022-10-31T03:33:04;99245.84;;;18.08;50.40
22753;BME280;11543;43.144;24.684;2022-10-31T03:35:32;99239.31;;;18.03;50.45
22753;BME280;11543;43.144;24.684;2022-10-31T03:37:58;99244.75;;;18.03;50.40
22753;BME280;11543;43.144;24.684;2022-10-31T03:40:27;99244.09;;;18.01;50.26
22753;BME280;11543;43.144;24.684;2022-10-31T03:42:59;99250.56;;;18.00;50.29
22753;BME280;11543;43.144;24.684;2022-10-31T03:45:30;99249.25;;;17.96;50.43
22753;BME280;11543;43.144;24.684;2022-10-31T03:47:58;99251.72;;;17.91;50.62
22753;BME280;11543;43.144;24.684;2022-10-31T03:50:27;99252.75;;;17.90;50.58
22753;BME280;11543;43.144;24.684;2022-10-31T03:53:00;99253.31;;;17.85;50.67
22753;BME280;11543;43.144;24.684;2022-10-31T03:55:39;99251.44;;;17.86;50.58
22753;BME280;11543;43.144;24.684;2022-10-31T03:58:11;99253.25;;;17.78;50.92
22753;BME280;11543;43.144;24.684;2022-10-31T04:00:43;99251.56;;;17.77;50.75
22753;BME280;11543;43.144;24.684;2022-10-31T04:03:12;99253.25;;;17.78;50.93
22753;BME280;11543;43.144;24.684;2022-10-31T04:05:40;99252.78;;;17.75;50.96
22753;BME280;11543;43.144;24.684;2022-10-31T04:08:12;99260.28;;;17.73;51.04
22753;BME280;11543;43.144;24.684;2022-10-31T04:10:39;99269.44;;;17.72;50.97
22753;BME280;11543;43.144;24.684;2022-10-31T04:13:08;99267.31;;;17.67;51.17
22753;BME280;11543;43.144;24.684;2022-10-31T04:15:35;99269.84;;;17.69;51.24
22753;BME280;11543;43.144;24.684;2022-10-31T04:18:04;99267.97;;;17.69;51.07
22753;BME280;11543;43.144;24.684;2022-10-31T04:20:38;99268.88;;;17.62;51.30
22753;BME280;11543;43.144;24.684;2022-10-31T04:23:04;99272.81;;;17.59;51.34
22753;BME280;11543;43.144;24.684;2022-10-31T04:25:30;99275.53;;;17.59;51.41
22753;BME280;11543;43.144;24.684;2022-10-31T04:27:55;99275.91;;;17.56;51.39
22753;BME280;11543;43.144;24.684;2022-10-31T04:30:21;99276.66;;;17.50;51.74
22753;BME280;11543;43.144;24.684;2022-10-31T04:32:47;99281.25;;;17.49;51.90
22753;BME280;11543;43.144;24.684;2022-10-31T04:35:12;99283.50;;;17.46;51.82
22753;BME280;11543;43.144;24.684;2022-10-31T04:37:38;99288.28;;;17.44;52.00
22753;BME280;11543;43.144;24.684;2022-10-31T04:40:04;99283.69;;;17.44;52.03
22753;BME280;11543;43.144;24.684;2022-10-31T04:42:30;99283.22;;;17.41;52.10
22753;BME280;11543;43.144;24.684;2022-10-31T04:44:55;99284.91;;;17.42;52.15
22753;BME280;11543;43.144;24.684;2022-10-31T04:47:21;99293.22;;;17.40;52.25
22753;BME280;11543;43.144;24.684;2022-10-31T04:49:46;99297.53;;;17.35;52.17
22753;BME280;11543;43.144;24.684;2022-10-31T04:52:12;99300.97;;;17.29;52.38
22753;BME280;11543;43.144;24.684;2022-10-31T04:54:37;99304.06;;;17.26;52.44
22753;BME280;11543;43.144;24.684;2022-10-31T04:57:04;99312.56;;;17.23;52.60
22753;BME280;11543;43.144;24.684;2022-10-31T04:59:29;99316.28;;;17.22;52.67
22753;BME280;11543;43.144;24.684;2022-10-31T05:01:54;99316.28;;;17.22;52.67
22753;BME280;11543;43.144;24.684;2022-10-31T05:04:20;99316.66;;;17.18;52.89
22753;BME280;11543;43.144;24.684;2022-10-31T05:06:45;99325.84;;;17.17;52.74
22753;BME280;11543;43.144;24.684;2022-10-31T05:09:11;99325.84;;;17.17;52.84
22753;BME280;11543;43.144;24.684;2022-10-31T05:11:36;99313.31;;;17.16;52.71
22753;BME280;11543;43.144;24.684;2022-10-31T05:14:02;99325.00;;;17.17;52.94
22753;BME280;11543;43.144;24.684;2022-10-31T05:16:28;99322.00;;;17.12;52.83
22753;BME280;11543;43.144;24.684;2022-10-31T05:18:53;99327.22;;;17.13;52.63
22753;BME280;11543;43.144;24.684;2022-10-31T05:21:18;99321.16;;;17.11;52.61
22753;BME280;11543;43.144;24.684;2022-10-31T05:23:44;99327.97;;;17.07;52.99
22753;BME280;11543;43.144;24.684;2022-10-31T05:26:09;99325.63;;;17.04;53.02
22753;BME280;11543;43.144;24.684;2022-10-31T05:28:35;99329.75;;;17.00;53.30
22753;BME280;11543;43.144;24.684;2022-10-31T05:31:00;99335.44;;;17.05;53.23
22753;BME280;11543;43.144;24.684;2022-10-31T05:33:26;99331.59;;;17.00;53.33
22753;BME280;11543;43.144;24.684;2022-10-31T05:35:51;99335.63;;;17.04;53.36
22753;BME280;11543;43.144;24.684;2022-10-31T05:38:16;99338.16;;;17.05;53.24
22753;BME280;11543;43.144;24.684;2022-10-31T05:40:42;99336.84;;;17.01;53.21
22753;BME280;11543;43.144;24.684;2022-10-31T05:43:07;99343.09;;;17.02;53.35
22753;BME280;11543;43.144;24.684;2022-10-31T05:45:33;99345.16;;;17.00;53.38
22753;BME280;11543;43.144;24.684;2022-10-31T05:48:00;99336.66;;;17.03;53.46
22753;BME280;11543;43.144;24.684;2022-10-31T05:50:28;99347.97;;;17.06;53.66
22753;BME280;11543;43.144;24.684;2022-10-31T05:52:58;99343.41;;;17.07;53.65
22753;BME280;11543;43.144;24.684;2022-10-31T05:55:23;99348.25;;;17.11;53.67
22753;BME280;11543;43.144;24.684;2022-10-31T05:57:51;99346.59;;;17.10;53.52
22753;BME280;11543;43.144;24.684;2022-10-31T06:00:16;99343.69;;;17.12;53.75
22753;BME280;11543;43.144;24.684;2022-10-31T06:02:42;99339.66;;;17.08;53.85
22753;BME280;11543;43.144;24.684;2022-10-31T06:05:08;99347.41;;;17.11;54.09
22753;BME280;11543;43.144;24.684;2022-10-31T06:07:33;99360.06;;;17.18;54.27
22753;BME280;11543;43.144;24.684;2022-10-31T06:10:00;99348.84;;;17.22;54.08
22753;BME280;11543;43.144;24.684;2022-10-31T06:12:25;99367.72;;;17.30;54.13
22753;BME280;11543;43.144;24.684;2022-10-31T06:14:51;99360.91;;;17.34;54.34
22753;BME280;11543;43.144;24.684;2022-10-31T06:17:16;99363.84;;;17.47;54.10
22753;BME280;11543;43.144;24.684;2022-10-31T06:19:42;99371.16;;;17.61;53.81
22753;BME280;11543;43.144;24.684;2022-10-31T06:22:07;99368.38;;;17.69;53.67
22753;BME280;11543;43.144;24.684;2022-10-31T06:24:33;99367.63;;;17.75;53.73
22753;BME280;11543;43.144;24.684;2022-10-31T06:26:58;99381.47;;;17.80;53.49
22753;BME280;11543;43.144;24.684;2022-10-31T06:29:25;99375.28;;;17.87;53.43
22753;BME280;11543;43.144;24.684;2022-10-31T06:31:51;99373.31;;;17.95;53.33
22753;BME280;11543;43.144;24.684;2022-10-31T06:34:17;99375.06;;;18.03;53.36
22753;BME280;11543;43.144;24.684;2022-10-31T06:36:42;99364.69;;;17.92;53.22
22753;BME280;11543;43.144;24.684;2022-10-31T06:39:08;99372.84;;;17.92;53.65
22753;BME280;11543;43.144;24.684;2022-10-31T06:41:33;99379.31;;;17.91;53.88
22753;BME280;11543;43.144;24.684;2022-10-31T06:43:58;99373.22;;;17.89;54.26
22753;BME280;11543;43.144;24.684;2022-10-31T06:46:24;99374.44;;;17.86;54.73
22753;BME280;11543;43.144;24.684;2022-10-31T06:48:49;99382.47;;;17.94;54.61
22753;BME280;11543;43.144;24.684;2022-10-31T06:51:15;99367.03;;;17.95;54.46
22753;BME280;11543;43.144;24.684;2022-10-31T06:53:40;99384.25;;;18.02;54.43
22753;BME280;11543;43.144;24.684;2022-10-31T06:56:07;99388.91;;;18.08;54.40
22753;BME280;11543;43.144;24.684;2022-10-31T06:58:33;99386.84;;;18.10;54.75
22753;BME280;11543;43.144;24.684;2022-10-31T07:01:00;99378.69;;;18.10;54.54
22753;BME280;11543;43.144;24.684;2022-10-31T07:03:25;99381.03;;;18.13;54.59
22753;BME280;11543;43.144;24.684;2022-10-31T07:05:51;99377.88;;;18.24;54.32
22753;BME280;11543;43.144;24.684;2022-10-31T07:08:16;99374.84;;;18.19;53.90
22753;BME280;11543;43.144;24.684;2022-10-31T07:10:43;99378.78;;;18.31;53.75
22753;BME280;11543;43.144;24.684;2022-10-31T07:13:16;99378.28;;;18.42;53.27
22753;BME280;11543;43.144;24.684;2022-10-31T07:15:42;99375.56;;;18.42;53.36
22753;BME280;11543;43.144;24.684;2022-10-31T07:18:09;99367.28;;;18.51;53.07
22753;BME280;11543;43.144;24.684;2022-10-31T07:20:35;99374.00;;;18.55;53.23
22753;BME280;11543;43.144;24.684;2022-10-31T07:23:02;99372.69;;;18.65;52.87
22753;BME280;11543;43.144;24.684;2022-10-31T07:25:28;99359.50;;;18.62;52.88
22753;BME280;11543;43.144;24.684;2022-10-31T07:27:55;99373.00;;;18.77;52.98
22753;BME280;11543;43.144;24.684;2022-10-31T07:30:20;99365.88;;;18.76;52.77
22753;BME280;11543;43.144;24.684;2022-10-31T07:32:47;99374.81;;;18.91;52.38
22753;BME280;11543;43.144;24.684;2022-10-31T07:35:16;99372.78;;;19.00;52.19
22753;BME280;11543;43.144;24.684;2022-10-31T07:37:42;99364.44;;;19.01;51.68
22753;BME280;11543;43.144;24.684;2022-10-31T07:40:08;99376.75;;;19.19;51.80
22753;BME280;11543;43.144;24.684;2022-10-31T07:42:37;99369.47;;;19.26;51.25
22753;BME280;11543;43.144;24.684;2022-10-31T07:45:05;99380.25;;;19.40;50.70
22753;BME280;11543;43.144;24.684;2022-10-31T07:47:40;99378.84;;;19.51;50.71
22753;BME280;11543;43.144;24.684;2022-10-31T07:50:08;99386.28;;;19.64;50.23
22753;BME280;11543;43.144;24.684;2022-10-31T07:52:33;99391.38;;;19.73;50.15
22753;BME280;11543;43.144;24.684;2022-10-31T07:54:59;99384.91;;;19.81;49.77
22753;BME280;11543;43.144;24.684;2022-10-31T07:57:25;99387.28;;;19.91;49.16
22753;BME280;11543;43.144;24.684;2022-10-31T07:59:50;99378.56;;;20.02;49.05
22753;BME280;11543;43.144;24.684;2022-10-31T08:02:15;99382.34;;;20.08;48.97
22753;BME280;11543;43.144;24.684;2022-10-31T08:04:41;99376.31;;;20.19;48.58
22753;BME280;11543;43.144;24.684;2022-10-31T08:07:06;99372.97;;;20.23;48.65
22753;BME280;11543;43.144;24.684;2022-10-31T08:09:32;99377.44;;;20.38;48.46
22753;BME280;11543;43.144;24.684;2022-10-31T08:11:57;99378.13;;;20.46;48.24
22753;BME280;11543;43.144;24.684;2022-10-31T08:14:23;99378.75;;;20.55;47.61
22753;BME280;11543;43.144;24.684;2022-10-31T08:16:48;99364.94;;;20.63;47.48
22753;BME280;11543;43.144;24.684;2022-10-31T08:19:14;99369.78;;;20.74;47.81
22753;BME280;11543;43.144;24.684;2022-10-31T08:21:39;99364.53;;;20.79;46.91
22753;BME280;11543;43.144;24.684;2022-10-31T08:24:05;99372.75;;;20.92;47.14
22753;BME280;11543;43.144;24.684;2022-10-31T08:26:30;99374.66;;;20.98;46.89
22753;BME280;11543;43.144;24.684;2022-10-31T08:28:56;99370.88;;;21.13;46.55
22753;BME280;11543;43.144;24.684;2022-10-31T08:31:22;99359.13;;;21.19;46.27
22753;BME280;11543;43.144;24.684;2022-10-31T08:33:48;99361.25;;;21.30;45.84
22753;BME280;11543;43.144;24.684;2022-10-31T08:36:14;99365.00;;;21.42;45.95
22753;BME280;11543;43.144;24.684;2022-10-31T08:38:39;99365.81;;;21.49;45.67
22753;BME280;11543;43.144;24.684;2022-10-31T08:41:05;99365.78;;;21.62;45.45
22753;BME280;11543;43.144;24.684;2022-10-31T08:43:30;99361.19;;;21.70;44.98
22753;BME280;11543;43.144;24.684;2022-10-31T08:45:55;99370.41;;;21.82;44.99
22753;BME280;11543;43.144;24.684;2022-10-31T08:48:21;99367.00;;;21.93;44.93
22753;BME280;11543;43.144;24.684;2022-10-31T08:50:47;99368.25;;;21.90;44.78
22753;BME280;11543;43.144;24.684;2022-10-31T08:53:17;99380.00;;;22.04;44.74
22753;BME280;11543;43.144;24.684;2022-10-31T08:55:44;99372.19;;;22.14;44.33
22753;BME280;11543;43.144;24.684;2022-10-31T08:58:12;99372.34;;;22.26;44.29
22753;BME280;11543;43.144;24.684;2022-10-31T09:00:38;99375.66;;;22.35;44.04
22753;BME280;11543;43.144;24.684;2022-10-31T09:03:06;99376.47;;;22.42;43.66
22753;BME280;11543;43.144;24.684;2022-10-31T09:05:33;99371.59;;;22.50;43.55
22753;BME280;11543;43.144;24.684;2022-10-31T09:08:00;99381.91;;;22.55;43.65
22753;BME280;11543;43.144;24.684;2022-10-31T09:10:28;99378.69;;;22.65;43.48
22753;BME280;11543;43.144;24.684;2022-10-31T09:13:05;99366.69;;;22.66;43.42
22753;BME280;11543;43.144;24.684;2022-10-31T09:15:33;99373.56;;;22.81;43.04
22753;BME280;11543;43.144;24.684;2022-10-31T09:17:59;99371.00;;;22.86;42.52
22753;BME280;11543;43.144;24.684;2022-10-31T09:20:26;99366.19;;;22.82;42.75
22753;BME280;11543;43.144;24.684;2022-10-31T09:23:03;99370.50;;;22.96;42.46
22753;BME280;11543;43.144;24.684;2022-10-31T09:25:29;99359.31;;;22.98;42.08
22753;BME280;11543;43.144;24.684;2022-10-31T09:27:58;99371.06;;;23.05;42.22
22753;BME280;11543;43.144;24.684;2022-10-31T09:30:25;99367.25;;;23.06;42.47
22753;BME280;11543;43.144;24.684;2022-10-31T09:32:59;99369.25;;;23.17;41.81
22753;BME280;11543;43.144;24.684;2022-10-31T09:35:25;99365.63;;;23.23;41.37
22753;BME280;11543;43.144;24.684;2022-10-31T09:37:58;99365.47;;;23.18;41.82
22753;BME280;11543;43.144;24.684;2022-10-31T09:40:37;99366.09;;;23.20;41.85
22753;BME280;11543;43.144;24.684;2022-10-31T09:46:05;99359.88;;;23.31;41.88
22753;BME280;11543;43.144;24.684;2022-10-31T09:51:18;99353.78;;;23.54;40.85
22753;BME280;11543;43.144;24.684;2022-10-31T09:56:21;99360.91;;;23.62;40.67
22753;BME280;11543;43.144;24.684;2022-10-31T09:58:58;99356.03;;;23.64;40.94
22753;BME280;11543;43.144;24.684;2022-10-31T10:06:46;99353.59;;;23.74;40.49
22753;BME280;11543;43.144;24.684;2022-10-31T10:09:13;99347.19;;;23.80;40.18
22753;BME280;11543;43.144;24.684;2022-10-31T10:14:54;99345.06;;;23.82;39.85
22753;BME280;11543;43.144;24.684;2022-10-31T10:22:57;99324.50;;;23.91;39.88
22753;BME280;11543;43.144;24.684;2022-10-31T10:25:34;99331.28;;;23.89;39.82
22753;BME280;11543;43.144;24.684;2022-10-31T10:30:49;99327.72;;;23.88;40.11
22753;BME280;11543;43.144;24.684;2022-10-31T10:33:22;99325.56;;;23.90;39.92
22753;BME280;11543;43.144;24.684;2022-10-31T10:35:54;99319.19;;;23.96;40.06
22753;BME280;11543;43.144;24.684;2022-10-31T10:40:59;99318.69;;;24.18;39.61
22753;BME280;11543;43.144;24.684;2022-10-31T10:43:37;99314.78;;;24.25;39.92
22753;BME280;11543;43.144;24.684;2022-10-31T10:51:38;99317.69;;;24.60;38.40
22753;BME280;11543;43.144;24.684;2022-10-31T10:59:24;99308.66;;;24.71;38.34
22753;BME280;11543;43.144;24.684;2022-10-31T11:01:51;99302.97;;;24.85;38.03
22753;BME280;11543;43.144;24.684;2022-10-31T11:04:33;99306.94;;;25.00;37.59
22753;BME280;11543;43.144;24.684;2022-10-31T11:06:59;99312.91;;;25.09;37.89
22753;BME280;11543;43.144;24.684;2022-10-31T11:09:25;99310.56;;;25.24;37.52
22753;BME280;11543;43.144;24.684;2022-10-31T11:11:51;99300.28;;;25.31;37.73
22753;BME280;11543;43.144;24.684;2022-10-31T11:14:17;99308.16;;;25.39;37.40
22753;BME280;11543;43.144;24.684;2022-10-31T11:16:46;99299.78;;;25.58;37.55
22753;BME280;11543;43.144;24.684;2022-10-31T11:19:17;99305.06;;;25.71;36.90
22753;BME280;11543;43.144;24.684;2022-10-31T11:21:43;99291.06;;;25.73;36.70
22753;BME280;11543;43.144;24.684;2022-10-31T11:26:40;99284.84;;;25.77;36.74
22753;BME280;11543;43.144;24.684;2022-10-31T11:29:20;99291.13;;;25.89;36.81
22753;BME280;11543;43.144;24.684;2022-10-31T11:31:46;99289.31;;;25.95;36.50
22753;BME280;11543;43.144;24.684;2022-10-31T11:34:33;99286.06;;;26.10;35.72
22753;BME280;11543;43.144;24.684;2022-10-31T11:37:12;99280.09;;;26.13;36.09
22753;BME280;11543;43.144;24.684;2022-10-31T11:39:51;99282.94;;;26.18;35.64
22753;BME280;11543;43.144;24.684;2022-10-31T11:42:21;99273.25;;;26.15;35.71
22753;BME280;11543;43.144;24.684;2022-10-31T11:44:47;99288.03;;;26.26;35.79
22753;BME280;11543;43.144;24.684;2022-10-31T11:47:16;99286.47;;;26.30;35.26
22753;BME280;11543;43.144;24.684;2022-10-31T11:49:46;99281.69;;;26.37;34.92
22753;BME280;11543;43.144;24.684;2022-10-31T11:52:24;99280.59;;;26.38;34.95
22753;BME280;11543;43.144;24.684;2022-10-31T11:57:46;99268.00;;;26.42;35.10
22753;BME280;11543;43.144;24.684;2022-10-31T12:00:26;99261.09;;;26.40;35.19
22753;BME280;11543;43.144;24.684;2022-10-31T12:05:38;99264.19;;;26.43;35.31
22753;BME280;11543;43.144;24.684;2022-10-31T12:08:08;99267.91;;;26.37;35.65
22753;BME280;11543;43.144;24.684;2022-10-31T12:11:05;99267.50;;;26.45;35.47
22753;BME280;11543;43.144;24.684;2022-10-31T12:13:37;99270.34;;;26.50;35.44
22753;BME280;11543;43.144;24.684;2022-10-31T12:16:20;99271.63;;;26.59;35.46
22753;BME280;11543;43.144;24.684;2022-10-31T12:19:00;99267.53;;;26.62;34.99
22753;BME280;11543;43.144;24.684;2022-10-31T12:26:45;99268.13;;;26.81;34.48
22753;BME280;11543;43.144;24.684;2022-10-31T12:32:47;99267.88;;;26.65;35.18
22753;BME280;11543;43.144;24.684;2022-10-31T12:37:50;99267.19;;;26.58;34.86
22753;BME280;11543;43.144;24.684;2022-10-31T13:01:50;99260.25;;;26.39;34.93
22753;BME280;11543;43.144;24.684;2022-10-31T13:07:00;99264.69;;;26.40;34.79
22753;BME280;11543;43.144;24.684;2022-10-31T13:09:33;99273.66;;;26.36;34.78
22753;BME280;11543;43.144;24.684;2022-10-31T13:12:20;99263.38;;;26.31;34.63
22753;BME280;11543;43.144;24.684;2022-10-31T13:14:51;99264.59;;;26.23;35.22
22753;BME280;11543;43.144;24.684;2022-10-31T13:17:30;99263.78;;;26.23;34.90
22753;BME280;11543;43.144;24.684;2022-10-31T13:20:30;99265.25;;;26.14;34.93
22753;BME280;11543;43.144;24.684;2022-10-31T13:25:43;99268.41;;;26.06;35.46
22753;BME280;11543;43.144;24.684;2022-10-31T13:28:21;99260.50;;;25.97;35.27
22753;BME280;11543;43.144;24.684;2022-10-31T13:30:49;99262.66;;;25.95;35.34
22753;BME280;11543;43.144;24.684;2022-10-31T13:42:11;99264.53;;;25.78;35.51
22753;BME280;11543;43.144;24.684;2022-10-31T13:44:38;99260.59;;;25.74;36.03
22753;BME280;11543;43.144;24.684;2022-10-31T13:47:20;99266.09;;;25.74;35.67
22753;BME280;11543;43.144;24.684;2022-10-31T13:49:46;99259.91;;;25.67;35.75
22753;BME280;11543;43.144;24.684;2022-10-31T13:52:12;99266.81;;;25.69;36.04
22753;BME280;11543;43.144;24.684;2022-10-31T13:54:51;99258.69;;;25.63;35.64
22753;BME280;11543;43.144;24.684;2022-10-31T13:59:58;99267.66;;;25.58;35.85
22753;BME280;11543;43.144;24.684;2022-10-31T14:02:33;99263.13;;;25.52;36.05
22753;BME280;11543;43.144;24.684;2022-10-31T14:05:03;99267.19;;;25.50;36.29
22753;BME280;11543;43.144;24.684;2022-10-31T14:07:30;99274.63;;;25.37;36.41
22753;BME280;11543;43.144;24.684;2022-10-31T14:10:00;99265.78;;;25.35;36.47
22753;BME280;11543;43.144;24.684;2022-10-31T14:15:18;99265.91;;;25.17;36.73
22753;BME280;11543;43.144;24.684;2022-10-31T14:18:05;99269.00;;;25.09;37.00
22753;BME280;11543;43.144;24.684;2022-10-31T14:20:40;99272.09;;;25.01;37.32
22753;BME280;11543;43.144;24.684;2022-10-31T14:23:37;99264.78;;;24.95;36.92
22753;BME280;11543;43.144;24.684;2022-10-31T14:26:31;99271.34;;;24.94;37.28
22753;BME280;11543;43.144;24.684;2022-10-31T14:29:00;99268.47;;;24.89;37.26
22753;BME280;11543;43.144;24.684;2022-10-31T14:31:34;99272.75;;;24.85;37.00
22753;BME280;11543;43.144;24.684;2022-10-31T14:50:48;99266.59;;;24.18;38.28
22753;BME280;11543;43.144;24.684;2022-10-31T14:53:25;99271.22;;;24.17;38.20
22753;BME280;11543;43.144;24.684;2022-10-31T14:55:54;99269.34;;;24.18;38.74
22753;BME280;11543;43.144;24.684;2022-10-31T14:58:33;99271.59;;;24.21;38.88
22753;BME280;11543;43.144;24.684;2022-10-31T15:01:00;99275.41;;;24.20;38.62
22753;BME280;11543;43.144;24.684;2022-10-31T15:03:37;99273.75;;;24.19;38.67
22753;BME280;11543;43.144;24.684;2022-10-31T15:06:12;99263.72;;;24.12;38.75
22753;BME280;11543;43.144;24.684;2022-10-31T15:11:16;99271.09;;;24.12;38.87
22753;BME280;11543;43.144;24.684;2022-10-31T15:16:18;99275.47;;;24.01;39.15
22753;BME280;11543;43.144;24.684;2022-10-31T15:18:59;99277.00;;;23.97;39.18
22753;BME280;11543;43.144;24.684;2022-10-31T15:21:26;99274.13;;;23.92;39.46
22753;BME280;11543;43.144;24.684;2022-10-31T15:23:57;99280.28;;;23.88;39.33